createdAt,value
2018-01-30T00:00:22.556Z,1.90
2018-01-30T00:02:49.211Z,2.40
2018-01-30T00:05:15.773Z,1.30
2018-01-30T00:07:42.364Z,1.03
2018-01-30T00:10:12.197Z,2.13
2018-01-30T00:12:38.826Z,0.80
2018-01-30T00:15:05.427Z,1.53
2018-01-30T00:17:32.802Z,0.97
2018-01-30T00:19:59.460Z,1.20
2018-01-30T00:22:39.110Z,1.90
2018-01-30T00:25:05.704Z,1.57
2018-01-30T00:27:40.940Z,1.00
2018-01-30T00:30:07.945Z,2.20
2018-01-30T00:32:34.547Z,1.97
2018-01-30T00:35:01.220Z,0.57
2018-01-30T00:37:27.925Z,2.10
2018-01-30T00:39:54.526Z,1.73
2018-01-30T00:42:21.148Z,2.73
2018-01-30T00:44:47.760Z,2.17
2018-01-30T00:47:14.357Z,1.73
2018-01-30T00:49:40.973Z,0.87
2018-01-30T00:52:07.626Z,2.23
2018-01-30T00:54:34.621Z,0.77
2018-01-30T00:57:01.253Z,1.77
2018-01-30T00:59:27.889Z,1.50
2018-01-30T01:01:54.490Z,2.40
2018-01-30T01:04:21.509Z,2.50
2018-01-30T01:06:48.128Z,0.90
2018-01-30T01:09:14.767Z,2.00
2018-01-30T01:11:42.428Z,2.13
2018-01-30T01:14:09.069Z,2.13
2018-01-30T01:16:35.657Z,1.73
2018-01-30T01:19:02.262Z,0.67
2018-01-30T01:21:28.856Z,2.00
2018-01-30T01:23:55.453Z,2.30
2018-01-30T01:26:22.077Z,1.97
2018-01-30T01:28:48.677Z,2.53
2018-01-30T01:31:15.262Z,1.27
2018-01-30T01:33:43.255Z,2.17
2018-01-30T01:36:09.872Z,0.67
2018-01-30T01:38:36.830Z,1.30
2018-01-30T01:41:03.843Z,2.10
2018-01-30T01:43:30.416Z,0.90
2018-01-30T01:45:57.376Z,1.43
2018-01-30T01:48:41.228Z,2.97
2018-01-30T01:51:07.834Z,3.40
2018-01-30T01:53:34.813Z,1.83
2018-01-30T01:56:01.757Z,1.40
2018-01-30T01:58:28.418Z,1.63
2018-01-30T02:00:54.999Z,2.30
2018-01-30T02:03:22.288Z,0.63
2018-01-30T02:05:48.913Z,2.27
2018-01-30T02:08:15.545Z,1.50
2018-01-30T02:10:42.210Z,1.20
2018-01-30T02:13:08.797Z,1.80
2018-01-30T02:15:35.788Z,1.50
2018-01-30T02:18:07.353Z,1.10
2018-01-30T02:20:34.015Z,1.53
2018-01-30T02:23:00.638Z,2.60
2018-01-30T02:25:27.530Z,2.50
2018-01-30T02:27:54.491Z,1.40
2018-01-30T02:30:21.077Z,1.50
2018-01-30T02:32:52.462Z,0.80
2018-01-30T02:35:19.458Z,1.23
2018-01-30T02:37:46.050Z,1.77
2018-01-30T02:40:12.681Z,1.97
2018-01-30T02:42:39.662Z,1.23
2018-01-30T02:45:06.319Z,2.97
2018-01-30T02:47:32.902Z,0.73
2018-01-30T02:49:59.957Z,1.70
2018-01-30T02:52:26.978Z,0.60
2018-01-30T02:54:53.575Z,2.13
2018-01-30T02:57:20.204Z,1.10
2018-01-30T02:59:50.158Z,1.37
2018-01-30T03:02:16.807Z,1.80
2018-01-30T03:04:43.424Z,1.10
2018-01-30T03:07:10.426Z,1.13
2018-01-30T03:09:37.416Z,0.80
2018-01-30T03:12:04.033Z,2.23
2018-01-30T03:14:32.681Z,2.17
2018-01-30T03:16:59.652Z,1.07
2018-01-30T03:19:26.575Z,2.50
2018-01-30T03:21:53.580Z,1.50
2018-01-30T03:24:20.208Z,1.87
2018-01-30T03:26:46.870Z,1.20
2018-01-30T03:29:13.502Z,1.63
2018-01-30T03:31:40.157Z,1.67
2018-01-30T03:34:06.810Z,2.33
2018-01-30T03:36:33.845Z,0.60
2018-01-30T03:39:00.907Z,1.50
2018-01-30T03:41:28.168Z,0.43
2018-01-30T03:43:54.766Z,1.67
2018-01-30T03:46:21.393Z,0.90
2018-01-30T03:48:48.346Z,1.13
2018-01-30T03:51:14.959Z,1.33
2018-01-30T03:53:41.535Z,2.10
2018-01-30T03:56:08.605Z,2.63
2018-01-30T03:58:35.558Z,1.63
2018-01-30T04:01:02.161Z,1.57
2018-01-30T04:03:49.300Z,2.17
2018-01-30T04:06:16.305Z,1.00
2018-01-30T04:08:42.899Z,2.03
2018-01-30T04:11:09.524Z,2.27
2018-01-30T04:13:36.487Z,0.40
2018-01-30T04:16:03.075Z,1.40
2018-01-30T04:18:29.707Z,0.93
2018-01-30T04:20:56.349Z,0.87
2018-01-30T04:23:22.963Z,0.50
2018-01-30T04:25:49.993Z,0.83
2018-01-30T04:28:16.596Z,0.90
2018-01-30T04:30:43.218Z,2.33
2018-01-30T04:33:09.849Z,1.53
2018-01-30T04:35:36.433Z,1.33
2018-01-30T04:38:04.018Z,1.57
2018-01-30T04:40:30.662Z,1.43
2018-01-30T04:42:57.266Z,2.10
2018-01-30T04:45:23.868Z,0.53
2018-01-30T04:47:50.503Z,2.23
2018-01-30T04:50:17.061Z,1.20
2018-01-30T04:52:44.082Z,1.17
2018-01-30T04:55:10.697Z,1.80
2018-01-30T04:57:37.360Z,0.80
2018-01-30T05:00:07.485Z,1.37
2018-01-30T05:02:35.155Z,1.67
2018-01-30T05:05:01.770Z,2.37
2018-01-30T05:07:28.409Z,1.13
2018-01-30T05:09:55.025Z,1.40
2018-01-30T05:12:21.629Z,1.60
2018-01-30T05:14:48.701Z,0.60
2018-01-30T05:17:15.286Z,1.27
2018-01-30T05:19:42.051Z,2.13
2018-01-30T05:22:09.083Z,0.93
2018-01-30T05:24:36.002Z,0.87
2018-01-30T05:27:21.409Z,1.83
2018-01-30T05:29:48.003Z,1.53
2018-01-30T05:32:14.672Z,1.40
2018-01-30T05:34:41.374Z,0.33
2018-01-30T05:37:07.945Z,0.63
2018-01-30T05:39:34.548Z,1.17
2018-01-30T05:42:02.205Z,0.93
2018-01-30T05:44:28.881Z,1.13
2018-01-30T05:46:55.436Z,1.60
2018-01-30T05:49:22.116Z,1.80
2018-01-30T05:51:48.718Z,0.93
2018-01-30T05:54:15.711Z,1.90
2018-01-30T05:59:34.645Z,1.20
2018-01-30T06:02:01.651Z,1.37
2018-01-30T06:04:28.259Z,0.73
2018-01-30T06:06:54.883Z,1.43
2018-01-30T06:09:21.507Z,0.93
2018-01-30T06:11:48.533Z,0.03
2018-01-30T06:14:15.165Z,0.30
2018-01-30T06:16:42.161Z,1.67
2018-01-30T06:19:08.773Z,0.60
2018-01-30T06:21:35.418Z,2.67
2018-01-30T06:24:02.563Z,2.47
2018-01-30T06:26:29.571Z,2.00
2018-01-30T06:28:56.226Z,1.27
2018-01-30T06:31:23.097Z,0.50
2018-01-30T06:33:54.852Z,0.53
2018-01-30T06:36:21.845Z,1.50
2018-01-30T06:38:48.465Z,1.90
2018-01-30T06:41:15.111Z,1.70
2018-01-30T06:43:41.702Z,2.10
2018-01-30T06:46:08.351Z,1.63
2018-01-30T06:51:27.276Z,1.40
2018-01-30T06:53:53.893Z,1.47
2018-01-30T06:56:20.512Z,1.43
2018-01-30T06:58:47.193Z,0.90
2018-01-30T07:01:13.827Z,2.53
2018-01-30T07:03:40.430Z,1.77
2018-01-30T07:06:07.135Z,1.23
2018-01-30T07:08:33.723Z,0.90
2018-01-30T07:11:00.295Z,0.50
2018-01-30T07:13:26.963Z,0.63
2018-01-30T07:15:53.572Z,1.13
2018-01-30T07:18:20.194Z,1.53
2018-01-30T07:20:46.880Z,0.50
2018-01-30T07:23:13.935Z,1.87
2018-01-30T07:25:40.898Z,2.20
2018-01-30T07:28:07.522Z,1.97
2018-01-30T07:30:34.639Z,2.93
2018-01-30T07:33:01.222Z,0.73
2018-01-30T07:35:31.712Z,0.83
2018-01-30T07:38:00.337Z,2.50
2018-01-30T07:40:26.927Z,2.30
2018-01-30T07:42:53.559Z,0.73
2018-01-30T07:45:20.634Z,1.43
2018-01-30T07:47:47.634Z,1.53
2018-01-30T07:50:14.281Z,2.00
2018-01-30T07:52:41.026Z,1.73
2018-01-30T07:55:07.662Z,1.67
2018-01-30T07:57:34.257Z,1.83
2018-01-30T08:00:00.947Z,1.90
2018-01-30T08:02:27.601Z,2.43
2018-01-30T08:04:54.234Z,2.03
2018-01-30T08:07:20.932Z,0.83
2018-01-30T08:09:47.531Z,1.40
2018-01-30T08:12:14.522Z,0.73
2018-01-30T08:14:41.151Z,1.17
2018-01-30T08:17:07.775Z,4.83
2018-01-30T08:19:34.386Z,1.53
2018-01-30T08:22:01.453Z,0.47
2018-01-30T08:24:28.777Z,2.00
2018-01-30T08:26:55.399Z,0.17
2018-01-30T08:29:22.311Z,2.37
2018-01-30T08:31:48.969Z,2.43
2018-01-30T08:34:15.604Z,4.17
2018-01-30T08:36:42.257Z,2.17
2018-01-30T08:39:08.845Z,1.20
2018-01-30T08:41:35.458Z,1.70
2018-01-30T08:44:02.348Z,2.10
2018-01-30T08:46:28.967Z,1.13
2018-01-30T08:48:55.667Z,1.40
2018-01-30T08:51:23.110Z,0.80
2018-01-30T08:53:49.795Z,2.63
2018-01-30T08:56:16.813Z,1.43
2018-01-30T08:58:43.794Z,1.80
2018-01-30T09:01:10.421Z,3.57
2018-01-30T09:03:37.384Z,1.97
2018-01-30T09:06:04.114Z,2.30
2018-01-30T09:08:30.751Z,3.47
2018-01-30T09:10:57.754Z,2.50
2018-01-30T09:13:24.390Z,2.10
2018-01-30T09:15:50.965Z,1.70
2018-01-30T09:18:17.961Z,0.83
2018-01-30T09:20:44.841Z,3.23
2018-01-30T09:23:11.411Z,3.43
2018-01-30T09:25:38.003Z,2.00
2018-01-30T09:28:04.993Z,1.03
2018-01-30T09:30:31.634Z,1.80
2018-01-30T09:32:58.233Z,2.03
2018-01-30T09:35:25.337Z,1.97
2018-01-30T09:37:51.962Z,1.47
2018-01-30T09:40:18.563Z,0.87
2018-01-30T09:42:45.629Z,1.80
2018-01-30T09:45:29.689Z,4.67
2018-01-30T09:47:56.589Z,2.00
2018-01-30T09:50:23.192Z,1.40
2018-01-30T09:52:49.827Z,3.43
2018-01-30T09:55:16.831Z,1.37
2018-01-30T09:57:43.893Z,1.27
2018-01-30T10:00:10.568Z,2.97
2018-01-30T10:02:37.181Z,2.03
2018-01-30T10:05:03.843Z,0.67
2018-01-30T10:07:30.411Z,2.17
2018-01-30T10:09:57.056Z,2.00
2018-01-30T10:12:23.701Z,1.87
2018-01-30T10:14:50.856Z,0.57
2018-01-30T10:17:17.509Z,1.10
2018-01-30T10:19:44.525Z,2.37
2018-01-30T10:22:11.185Z,2.70
2018-01-30T10:24:38.239Z,0.63
2018-01-30T10:27:04.874Z,2.13
2018-01-30T10:29:31.887Z,3.20
2018-01-30T10:31:58.854Z,3.13
2018-01-30T10:34:25.465Z,1.07
2018-01-30T10:36:55.805Z,2.63
2018-01-30T10:39:22.442Z,2.00
2018-01-30T10:41:49.039Z,1.90
2018-01-30T10:44:15.625Z,1.13
2018-01-30T10:46:42.285Z,2.37
2018-01-30T10:49:08.958Z,1.17
2018-01-30T10:51:35.568Z,2.57
2018-01-30T10:54:02.263Z,0.70
2018-01-30T10:56:28.949Z,2.53
2018-01-30T10:58:59.194Z,2.07
2018-01-30T11:01:25.859Z,1.80
2018-01-30T11:03:52.498Z,1.77
2018-01-30T11:06:19.113Z,1.87
2018-01-30T11:08:45.797Z,2.77
2018-01-30T11:11:12.382Z,3.10
2018-01-30T11:13:39.067Z,1.23
2018-01-30T11:16:05.797Z,2.43
2018-01-30T11:18:53.667Z,2.70
2018-01-30T11:21:20.934Z,1.70
2018-01-30T11:23:47.574Z,2.03
2018-01-30T11:26:14.203Z,1.60
2018-01-30T11:28:40.911Z,2.50
2018-01-30T11:31:07.502Z,1.80
2018-01-30T11:33:34.099Z,1.90
2018-01-30T11:36:01.202Z,2.50
2018-01-30T11:38:37.989Z,1.97
2018-01-30T11:41:04.929Z,0.70
2018-01-30T11:43:31.601Z,1.27
2018-01-30T11:45:58.171Z,1.10
2018-01-30T11:48:24.832Z,2.53
2018-01-30T11:50:51.422Z,1.37
2018-01-30T11:53:18.080Z,2.20
2018-01-30T11:55:44.742Z,1.13
2018-01-30T11:58:11.300Z,1.13
2018-01-30T12:00:37.868Z,1.43
2018-01-30T12:03:04.890Z,1.43
2018-01-30T12:05:31.484Z,3.03
2018-01-30T12:07:58.096Z,2.50
2018-01-30T12:10:25.120Z,1.77
2018-01-30T12:12:51.729Z,2.67
2018-01-30T12:15:18.381Z,0.70
2018-01-30T12:17:45.074Z,2.40
2018-01-30T12:20:11.695Z,1.07
2018-01-30T12:22:38.744Z,2.27
2018-01-30T12:25:05.804Z,1.73
2018-01-30T12:27:32.763Z,1.40
2018-01-30T12:29:59.412Z,2.27
2018-01-30T12:32:26.049Z,1.50
2018-01-30T12:34:52.648Z,1.43
2018-01-30T12:37:19.651Z,0.87
2018-01-30T12:39:46.333Z,1.23
2018-01-30T12:42:12.929Z,2.40
2018-01-30T12:44:39.565Z,0.87
2018-01-30T12:47:06.611Z,1.17
2018-01-30T12:49:33.179Z,2.03
2018-01-30T12:51:59.794Z,1.50
2018-01-30T12:54:26.417Z,0.80
2018-01-30T12:56:52.991Z,2.43
2018-01-30T12:59:19.656Z,1.03
2018-01-30T13:01:51.131Z,1.80
2018-01-30T13:04:17.709Z,1.43
2018-01-30T13:06:44.354Z,1.33
2018-01-30T13:09:11.031Z,2.47
2018-01-30T13:11:37.620Z,1.57
2018-01-30T13:14:04.354Z,0.90
2018-01-30T13:16:30.919Z,2.37
2018-01-30T13:18:57.525Z,1.73
2018-01-30T13:21:24.173Z,1.63
2018-01-30T13:23:50.771Z,1.80
2018-01-30T13:26:17.363Z,1.57
2018-01-30T13:28:44.018Z,2.03
2018-01-30T13:31:11.049Z,1.90
2018-01-30T13:33:37.618Z,1.27
2018-01-30T13:36:04.249Z,2.27
2018-01-30T13:38:49.060Z,1.30
2018-01-30T13:41:16.018Z,1.87
2018-01-30T13:43:44.649Z,1.40
2018-01-30T13:46:11.256Z,1.20
2018-01-30T13:48:41.776Z,1.87
2018-01-30T13:51:15.196Z,1.67
2018-01-30T13:53:42.462Z,0.93
2018-01-30T13:56:09.449Z,0.57
2018-01-30T13:58:36.051Z,1.93
2018-01-30T14:01:02.670Z,2.13
2018-01-30T14:03:29.828Z,1.07
2018-01-30T14:05:57.812Z,1.43
2018-01-30T14:08:24.442Z,1.20
2018-01-30T14:10:51.504Z,1.90
2018-01-30T14:13:18.141Z,1.23
2018-01-30T14:15:45.124Z,1.00
2018-01-30T14:18:12.172Z,2.37
2018-01-30T14:20:38.797Z,2.20
2018-01-30T14:23:09.301Z,2.60
2018-01-30T14:25:35.953Z,1.03
2018-01-30T14:28:02.554Z,1.80
2018-01-30T14:30:29.610Z,2.43
2018-01-30T14:32:56.612Z,3.23
2018-01-30T14:35:23.183Z,1.83
2018-01-30T14:37:50.177Z,0.60
2018-01-30T14:40:16.838Z,1.57
2018-01-30T14:42:43.467Z,0.77
2018-01-30T14:45:10.144Z,1.67
2018-01-30T14:47:40.639Z,1.83
2018-01-30T14:50:07.224Z,2.13
2018-01-30T14:52:34.235Z,1.83
2018-01-30T14:55:00.851Z,3.27
2018-01-30T14:57:27.421Z,2.37
2018-01-30T14:59:53.998Z,2.03
2018-01-30T15:02:20.660Z,1.37
2018-01-30T15:04:47.220Z,1.97
2018-01-30T15:07:13.844Z,2.03
2018-01-30T15:09:40.525Z,2.30
2018-01-30T15:12:07.531Z,1.50
2018-01-30T15:14:34.203Z,0.97
2018-01-30T15:17:00.880Z,2.50
2018-01-30T15:19:27.472Z,1.70
2018-01-30T15:21:54.127Z,1.83
2018-01-30T15:24:20.809Z,3.07
2018-01-30T15:27:00.758Z,0.60
2018-01-30T15:29:27.736Z,2.30
2018-01-30T15:31:54.335Z,2.17
2018-01-30T15:34:20.898Z,1.90
2018-01-30T15:36:47.525Z,2.33
2018-01-30T15:39:14.109Z,4.13
2018-01-30T15:41:41.107Z,2.03
2018-01-30T15:44:07.702Z,2.57
2018-01-30T15:46:34.694Z,1.90
2018-01-30T15:49:01.325Z,2.00
2018-01-30T15:51:28.004Z,1.33
2018-01-30T15:53:54.610Z,2.33
2018-01-30T15:56:21.240Z,3.20
2018-01-30T15:58:47.857Z,2.17
2018-01-30T16:01:14.492Z,2.07
2018-01-30T16:03:41.155Z,2.17
2018-01-30T16:06:07.758Z,1.87
2018-01-30T16:08:34.378Z,2.47
2018-01-30T16:11:01.004Z,2.73
2018-01-30T16:13:28.036Z,1.90
2018-01-30T16:15:54.619Z,2.23
2018-01-30T16:18:21.318Z,2.00
2018-01-30T16:20:47.957Z,2.30
2018-01-30T16:23:14.645Z,2.03
2018-01-30T16:25:41.351Z,2.03
2018-01-30T16:28:07.953Z,2.23
2018-01-30T16:30:34.672Z,2.33
2018-01-30T16:33:01.319Z,2.50
2018-01-30T16:35:27.965Z,2.17
2018-01-30T16:37:54.591Z,3.03
2018-01-30T16:40:21.293Z,1.97
2018-01-30T16:42:48.329Z,2.10
2018-01-30T16:45:15.303Z,2.50
2018-01-30T16:47:41.970Z,2.77
2018-01-30T16:50:08.547Z,2.37
2018-01-30T16:52:35.603Z,2.40
2018-01-30T16:55:02.629Z,3.27
2018-01-30T16:57:29.279Z,2.93
2018-01-30T16:59:55.851Z,3.00
2018-01-30T17:02:22.517Z,2.43
2018-01-30T17:04:49.117Z,2.53
2018-01-30T17:07:22.337Z,2.87
2018-01-30T17:09:48.982Z,1.83
2018-01-30T17:12:15.588Z,3.30
2018-01-30T17:14:42.865Z,3.13
2018-01-30T17:17:09.513Z,3.30
2018-01-30T17:19:36.124Z,3.03
2018-01-30T17:22:02.759Z,3.13
2018-01-30T17:24:30.182Z,3.30
2018-01-30T17:26:57.183Z,3.17
2018-01-30T17:29:24.151Z,3.37
2018-01-30T17:31:50.791Z,3.20
2018-01-30T17:34:17.465Z,3.70
2018-01-30T17:36:44.524Z,4.90
2018-01-30T17:39:11.530Z,4.13
2018-01-30T17:41:38.169Z,3.33
2018-01-30T17:44:06.083Z,4.03
2018-01-30T17:46:32.691Z,4.10
2018-01-30T17:48:59.684Z,4.00
2018-01-30T17:51:26.332Z,3.10
2018-01-30T17:53:52.957Z,3.90
2018-01-30T17:56:19.963Z,4.03
2018-01-30T17:58:46.563Z,4.33
2018-01-30T18:01:13.175Z,3.83
2018-01-30T18:03:39.828Z,4.63
2018-01-30T18:06:12.486Z,4.03
2018-01-30T18:08:41.165Z,5.20
2018-01-30T18:11:08.163Z,4.40
2018-01-30T18:13:34.816Z,4.67
2018-01-30T18:16:12.384Z,4.87
2018-01-30T18:18:42.976Z,5.40
2018-01-30T18:24:22.453Z,4.17
2018-01-30T18:26:49.131Z,4.90
2018-01-30T18:29:33.453Z,3.73
2018-01-30T18:32:00.070Z,5.10
2018-01-30T18:34:26.694Z,4.17
2018-01-30T18:36:53.347Z,4.37
2018-01-30T18:39:19.929Z,4.23
2018-01-30T18:41:46.567Z,6.00
2018-01-30T18:44:13.123Z,4.43
2018-01-30T18:46:39.824Z,5.83
2018-01-30T18:49:06.710Z,4.10
2018-01-30T18:51:33.716Z,4.20
2018-01-30T18:54:00.368Z,4.50
2018-01-30T18:56:27.008Z,5.47
2018-01-30T18:58:53.610Z,5.10
2018-01-30T19:01:20.209Z,4.60
2018-01-30T19:03:46.826Z,4.80
2018-01-30T19:06:24.779Z,4.57
2018-01-30T19:08:55.824Z,4.77
2018-01-30T19:11:22.507Z,4.87
2018-01-30T19:13:53.443Z,5.00
2018-01-30T19:16:20.199Z,5.83
2018-01-30T19:18:51.294Z,5.37
2018-01-30T19:21:17.913Z,5.30
2018-01-30T19:23:48.694Z,4.67
2018-01-30T19:26:15.671Z,7.33
2018-01-30T19:28:54.806Z,5.33
2018-01-30T19:31:21.526Z,5.20
2018-01-30T19:33:54.529Z,6.70
2018-01-30T19:36:24.354Z,5.87
2018-01-30T19:38:51.257Z,5.37
2018-01-30T19:41:17.888Z,5.40
2018-01-30T19:43:44.502Z,7.77
2018-01-30T19:46:36.075Z,6.07
2018-01-30T19:49:02.698Z,7.87
2018-01-30T19:51:29.599Z,6.23
2018-01-30T19:53:56.192Z,7.33
2018-01-30T19:56:22.788Z,5.93
2018-01-30T19:58:49.660Z,7.10
2018-01-30T20:01:16.325Z,5.50
2018-01-30T20:03:42.906Z,2.87
2018-01-30T20:06:09.928Z,5.47
2018-01-30T20:11:31.918Z,7.77
2018-01-30T20:13:58.521Z,6.57
2018-01-30T20:16:25.515Z,3.33
2018-01-30T20:18:52.170Z,6.43
2018-01-30T20:21:18.752Z,10.60
2018-01-30T20:23:45.420Z,6.70
2018-01-30T20:26:12.004Z,8.60
2018-01-30T20:28:39.016Z,7.67
2018-01-30T20:31:05.678Z,8.63
2018-01-30T20:33:35.750Z,7.87
2018-01-30T20:36:02.357Z,8.97
2018-01-30T20:38:29.774Z,8.43
2018-01-30T20:40:56.369Z,7.40
2018-01-30T20:43:22.951Z,9.80
2018-01-30T20:45:49.622Z,8.20
2018-01-30T20:48:16.701Z,9.50
2018-01-30T20:50:43.303Z,11.37
2018-01-30T20:53:10.397Z,11.03
2018-01-30T20:55:36.987Z,7.30
2018-01-30T20:58:04.008Z,10.90
2018-01-30T21:00:30.701Z,9.80
2018-01-30T21:02:57.266Z,8.30
2018-01-30T21:05:23.856Z,10.23
2018-01-30T21:07:50.851Z,8.67
2018-01-30T21:10:17.497Z,9.23
2018-01-30T21:12:44.373Z,11.50
2018-01-30T21:15:10.971Z,8.73
2018-01-30T21:17:37.610Z,12.00
2018-01-30T21:20:04.568Z,11.20
2018-01-30T21:22:31.176Z,11.23
2018-01-30T21:24:57.772Z,12.83
2018-01-30T21:27:24.388Z,9.40
2018-01-30T21:29:50.997Z,9.93
2018-01-30T21:32:17.592Z,6.77
2018-01-30T21:34:44.626Z,10.40
2018-01-30T21:37:11.239Z,9.97
2018-01-30T21:39:37.839Z,10.23
2018-01-30T21:42:04.503Z,11.53
2018-01-30T21:44:31.097Z,11.93
2018-01-30T21:46:58.095Z,13.00
2018-01-30T21:49:24.735Z,12.57
2018-01-30T21:51:51.313Z,11.20
2018-01-30T21:54:18.499Z,11.43
2018-01-30T21:56:44.954Z,8.97
2018-01-30T21:59:11.531Z,11.33
2018-01-30T22:01:38.545Z,11.53
2018-01-30T22:04:05.227Z,10.27
2018-01-30T22:06:32.227Z,13.70
2018-01-30T22:08:58.814Z,10.50
2018-01-30T22:11:25.894Z,14.27
2018-01-30T22:13:52.978Z,13.63
2018-01-30T22:16:19.538Z,13.50
2018-01-30T22:18:46.568Z,12.93
2018-01-30T22:21:24.415Z,6.23
2018-01-30T22:23:51.029Z,13.37
2018-01-30T22:26:18.017Z,15.97
2018-01-30T22:28:45.424Z,15.47
2018-01-30T22:31:11.576Z,13.67
2018-01-30T22:33:38.168Z,15.87
2018-01-30T22:36:04.745Z,11.80
2018-01-30T22:38:37.157Z,13.53
2018-01-30T22:41:03.726Z,14.07
2018-01-30T22:43:30.313Z,15.20
2018-01-30T22:45:57.205Z,13.63
